createdAt,value
2022-09-17T00:00:17.763Z,1.77
2022-09-17T00:05:19.465Z,1.65
2022-09-17T00:10:21.488Z,1.40
2022-09-17T00:15:23.083Z,1.38
2022-09-17T00:20:26.386Z,1.65
2022-09-17T00:25:28.059Z,1.52
2022-09-17T00:30:29.661Z,1.98
2022-09-17T00:35:31.323Z,1.30
2022-09-17T00:40:33.140Z,1.50
2022-09-17T00:45:34.774Z,1.30
2022-09-17T00:50:42.226Z,1.13
2022-09-17T00:55:48.795Z,1.15
2022-09-17T01:00:50.627Z,1.63
2022-09-17T01:06:29.663Z,0.93
2022-09-17T01:11:40.387Z,1.98
2022-09-17T01:17:20.461Z,1.83
2022-09-17T01:22:30.706Z,1.77
2022-09-17T01:28:07.951Z,1.60
2022-09-17T01:33:21.460Z,1.85
2022-09-17T01:38:32.294Z,1.50
2022-09-17T01:43:46.123Z,1.63
2022-09-17T01:48:51.983Z,1.73
2022-09-17T01:54:04.968Z,1.30
2022-09-17T01:59:30.599Z,2.20
2022-09-17T02:04:43.853Z,2.05
2022-09-17T02:09:54.938Z,1.63
2022-09-17T02:15:00.400Z,1.60
2022-09-17T02:20:03.529Z,1.80
2022-09-17T02:25:14.914Z,1.70
2022-09-17T02:30:17.765Z,1.40
2022-09-17T02:35:19.622Z,1.63
2022-09-17T02:40:30.317Z,2.03
2022-09-17T02:45:46.836Z,2.97
2022-09-17T02:51:27.920Z,2.85
2022-09-17T02:56:55.159Z,1.10
2022-09-17T03:02:27.012Z,1.27
2022-09-17T03:07:29.228Z,0.90
2022-09-17T03:12:31.181Z,1.10
2022-09-17T03:17:32.933Z,1.20
2022-09-17T03:22:35.730Z,0.70
2022-09-17T03:27:37.468Z,1.08
2022-09-17T03:32:39.073Z,0.82
2022-09-17T03:37:40.746Z,0.85
2022-09-17T03:42:42.421Z,1.30
2022-09-17T03:47:44.033Z,1.20
2022-09-17T03:52:45.821Z,1.27
2022-09-17T03:57:47.473Z,0.63
2022-09-17T04:02:49.237Z,0.70
2022-09-17T04:07:50.875Z,0.47
2022-09-17T04:12:52.530Z,0.80
2022-09-17T04:17:58.897Z,1.10
2022-09-17T04:23:00.605Z,1.10
2022-09-17T04:28:02.574Z,1.05
2022-09-17T04:33:04.839Z,1.25
2022-09-17T04:38:06.586Z,0.93
2022-09-17T04:43:10.539Z,1.45
2022-09-17T04:48:12.126Z,0.60
2022-09-17T04:53:13.932Z,0.73
2022-09-17T04:58:15.573Z,1.50
2022-09-17T05:03:17.179Z,0.63
2022-09-17T05:08:18.755Z,0.95
2022-09-17T05:13:20.330Z,0.80
2022-09-17T05:18:22.490Z,0.68
2022-09-17T05:23:24.255Z,1.00
2022-09-17T05:28:26.542Z,1.20
2022-09-17T05:33:28.685Z,1.08
2022-09-17T05:38:30.376Z,0.60
2022-09-17T05:43:32.483Z,0.55
2022-09-17T05:48:34.575Z,0.70
2022-09-17T05:53:36.266Z,1.00
2022-09-17T05:58:37.862Z,0.75
2022-09-17T06:03:39.559Z,0.68
2022-09-17T06:08:41.273Z,0.40
2022-09-17T06:13:43.885Z,0.65
2022-09-17T06:18:45.801Z,0.68
2022-09-17T06:23:47.955Z,1.00
2022-09-17T06:28:49.794Z,0.90
2022-09-17T06:33:51.430Z,0.80
2022-09-17T06:38:53.103Z,0.32
2022-09-17T06:43:54.682Z,0.90
2022-09-17T06:48:56.407Z,1.15
2022-09-17T06:53:58.111Z,0.98
2022-09-17T06:59:00.090Z,1.10
2022-09-17T07:04:02.224Z,1.02
2022-09-17T07:09:06.845Z,1.33
2022-09-17T07:14:10.827Z,0.73
2022-09-17T07:19:14.793Z,0.40
2022-09-17T07:24:16.737Z,0.63
2022-09-17T07:29:18.650Z,0.70
2022-09-17T07:34:20.529Z,0.70
2022-09-17T07:39:22.199Z,0.93
2022-09-17T07:44:23.896Z,0.85
2022-09-17T07:49:26.187Z,0.80
2022-09-17T07:54:28.034Z,1.00
2022-09-17T07:59:29.750Z,0.98
2022-09-17T08:04:31.453Z,1.58
2022-09-17T08:09:33.554Z,1.42
2022-09-17T08:14:35.283Z,1.10
2022-09-17T08:19:36.965Z,0.95
2022-09-17T08:24:38.612Z,1.58
2022-09-17T08:29:40.225Z,1.40
2022-09-17T08:34:41.800Z,1.13
2022-09-17T08:39:43.447Z,2.05
2022-09-17T08:44:49.136Z,1.50
2022-09-17T08:49:56.035Z,1.30
2022-09-17T08:55:11.273Z,0.88
2022-09-17T09:00:19.670Z,0.93
2022-09-17T09:05:26.812Z,0.85
2022-09-17T09:10:33.958Z,0.75
2022-09-17T09:15:45.450Z,0.80
2022-09-17T09:21:26.672Z,1.00
2022-09-17T09:26:45.212Z,0.45
2022-09-17T09:31:55.971Z,0.80
2022-09-17T09:37:16.092Z,0.73
2022-09-17T09:42:32.344Z,1.35
2022-09-17T09:47:52.024Z,1.42
2022-09-17T09:53:17.911Z,1.00
2022-09-17T09:58:35.715Z,1.17
2022-09-17T10:03:41.222Z,1.20
2022-09-17T10:09:04.341Z,0.93
2022-09-17T10:14:26.445Z,1.00
2022-09-17T10:19:28.051Z,0.90
2022-09-17T10:24:33.270Z,1.58
2022-09-17T10:29:35.380Z,0.93
2022-09-17T10:34:37.084Z,0.80
2022-09-17T10:39:48.765Z,1.33
2022-09-17T10:44:54.366Z,0.82
2022-09-17T10:50:08.401Z,0.90
2022-09-17T10:55:33.491Z,0.30
2022-09-17T11:01:02.957Z,1.50
2022-09-17T11:06:37.729Z,0.73
2022-09-17T11:12:04.386Z,1.70
2022-09-17T11:17:35.584Z,1.08
2022-09-17T11:22:43.194Z,1.52
2022-09-17T11:27:54.085Z,1.08
2022-09-17T11:33:16.031Z,2.20
2022-09-17T11:38:27.723Z,1.23
2022-09-17T11:43:35.669Z,1.30
2022-09-17T11:48:59.492Z,1.30
2022-09-17T11:54:08.201Z,1.23
2022-09-17T11:59:36.675Z,0.50
2022-09-17T12:04:47.452Z,0.60
2022-09-17T12:09:56.425Z,1.38
2022-09-17T12:15:02.438Z,1.40
2022-09-17T12:20:20.248Z,1.02
2022-09-17T12:25:24.482Z,1.42
2022-09-17T12:30:55.786Z,1.90
2022-09-17T12:36:23.658Z,1.48
2022-09-17T12:41:43.945Z,1.67
2022-09-17T12:46:57.468Z,1.10
2022-09-17T12:52:19.160Z,1.52
2022-09-17T12:57:58.653Z,1.70
2022-09-17T13:03:26.618Z,1.50
2022-09-17T13:08:53.683Z,0.77
2022-09-17T13:14:17.480Z,1.25
2022-09-17T13:19:38.699Z,0.40
2022-09-17T13:24:43.873Z,0.88
2022-09-17T13:29:47.701Z,0.90
2022-09-17T13:39:53.014Z,1.00
2022-09-17T13:45:08.884Z,1.02
2022-09-17T13:50:34.840Z,0.40
2022-09-17T13:55:43.829Z,1.17
2022-09-17T14:01:02.661Z,1.27
2022-09-17T14:06:08.478Z,1.50
2022-09-17T14:11:22.350Z,0.98
2022-09-17T14:16:37.169Z,1.15
2022-09-17T14:21:41.107Z,0.90
2022-09-17T14:27:04.582Z,1.27
2022-09-17T14:32:07.100Z,0.20
2022-09-17T14:37:16.133Z,1.42
2022-09-17T14:42:22.831Z,1.40
2022-09-17T14:47:24.753Z,1.67
2022-09-17T14:52:28.083Z,1.45
2022-09-17T14:57:30.018Z,1.17
2022-09-17T15:02:38.745Z,1.35
2022-09-17T15:07:44.394Z,0.83
2022-09-17T15:12:49.932Z,0.77
2022-09-17T15:17:52.458Z,1.10
2022-09-17T15:23:09.287Z,1.73
2022-09-17T15:28:31.480Z,0.75
2022-09-17T15:33:35.175Z,1.23
2022-09-17T15:38:39.181Z,1.25
2022-09-17T15:43:41.377Z,1.50
2022-09-17T15:48:43.051Z,1.20
2022-09-17T15:53:53.353Z,1.55
2022-09-17T15:59:23.479Z,0.77
2022-09-17T16:04:34.735Z,0.90
2022-09-17T16:09:47.124Z,1.05
2022-09-17T16:14:51.967Z,1.25
2022-09-17T16:19:56.015Z,1.10
2022-09-17T16:24:57.868Z,0.38
2022-09-17T16:30:06.541Z,1.05
2022-09-17T16:35:16.431Z,1.63
2022-09-17T16:40:19.763Z,1.13
2022-09-17T16:45:25.399Z,1.30
2022-09-17T16:50:54.892Z,1.02
2022-09-17T16:55:56.514Z,0.90
2022-09-17T17:00:58.205Z,1.20
2022-09-17T17:05:59.929Z,1.63
2022-09-17T17:11:01.682Z,1.05
2022-09-17T17:16:15.210Z,1.05
2022-09-17T17:21:16.948Z,1.20
2022-09-17T17:26:18.537Z,1.30
2022-09-17T17:31:20.307Z,1.88
2022-09-17T17:36:24.142Z,2.38
2022-09-17T17:41:27.415Z,3.00
2022-09-17T17:46:29.182Z,1.52
2022-09-17T17:51:30.981Z,1.17
2022-09-17T17:56:32.866Z,1.88
2022-09-17T18:01:35.151Z,1.42
2022-09-17T18:06:37.120Z,1.30
2022-09-17T18:11:38.931Z,1.35
2022-09-17T18:16:40.879Z,1.98
2022-09-17T18:21:42.686Z,1.27
2022-09-17T18:26:45.074Z,1.70
2022-09-17T18:31:48.815Z,2.38
2022-09-17T18:36:51.456Z,1.83
2022-09-17T18:41:53.206Z,2.45
2022-09-17T18:46:54.855Z,2.88
2022-09-17T18:51:56.606Z,2.45
2022-09-17T18:56:58.466Z,2.47
2022-09-17T19:02:00.173Z,2.70
2022-09-17T19:07:02.015Z,2.83
2022-09-17T19:12:03.833Z,2.78
2022-09-17T19:17:05.518Z,2.08
2022-09-17T19:22:08.224Z,2.63
2022-09-17T19:27:10.021Z,3.10
2022-09-17T19:32:11.822Z,2.35
2022-09-17T19:37:13.441Z,2.30
2022-09-17T19:42:15.074Z,1.52
2022-09-17T19:47:16.644Z,1.50
2022-09-17T19:52:19.671Z,2.78
2022-09-17T19:57:21.363Z,4.43
2022-09-17T20:02:22.940Z,3.88
2022-09-17T20:07:24.779Z,8.10
2022-09-17T20:12:26.452Z,3.17
2022-09-17T20:17:29.780Z,2.55
2022-09-17T20:22:31.441Z,2.13
2022-09-17T20:27:33.311Z,1.88
2022-09-17T20:32:34.884Z,2.20
2022-09-17T20:38:28.436Z,1.88
2022-09-17T20:42:58.334Z,0.98
2022-09-17T20:48:00.024Z,1.90
2022-09-17T20:53:01.648Z,1.75
2022-09-17T20:58:03.363Z,2.30
2022-09-17T21:03:05.703Z,1.48
2022-09-17T21:08:07.374Z,1.20
2022-09-17T21:13:09.550Z,1.20
2022-09-17T21:18:14.110Z,1.52
2022-09-17T21:23:15.854Z,1.75
2022-09-17T21:28:20.444Z,2.00
2022-09-17T21:33:22.216Z,1.40
2022-09-17T21:38:23.821Z,1.88
2022-09-17T21:43:26.502Z,1.10
2022-09-17T21:48:29.606Z,1.50
2022-09-17T21:53:32.685Z,1.50
2022-09-17T21:58:34.771Z,1.10
2022-09-17T22:03:36.513Z,1.30
2022-09-17T22:08:39.177Z,1.85
2022-09-17T22:13:41.626Z,2.08
2022-09-17T22:18:47.143Z,1.27
2022-09-17T22:23:50.563Z,1.95
2022-09-17T22:28:52.658Z,2.60
2022-09-17T22:33:54.350Z,1.80
2022-09-17T22:38:58.066Z,1.85
2022-09-17T22:44:04.775Z,1.63
2022-09-17T22:49:08.319Z,2.28
2022-09-17T22:54:14.971Z,2.10
2022-09-17T22:59:18.176Z,1.65
2022-09-17T23:04:19.993Z,1.42
2022-09-17T23:09:21.604Z,1.67
2022-09-17T23:14:23.234Z,0.68
2022-09-17T23:19:24.860Z,1.20
2022-09-17T23:24:26.576Z,0.60
2022-09-17T23:29:28.229Z,0.98
2022-09-17T23:34:29.810Z,1.23
2022-09-17T23:39:33.532Z,1.67
2022-09-17T23:44:36.192Z,1.67
2022-09-17T23:49:37.810Z,1.23
2022-09-17T23:54:39.457Z,1.55
2022-09-17T23:59:41.123Z,1.40
